createdAt,value
2023-02-14T00:03:52.979Z,5.32
2023-02-14T00:07:56.000Z,4.72
2023-02-14T00:11:59.008Z,5.85
2023-02-14T00:16:02.062Z,4.28
2023-02-14T00:20:08.192Z,3.05
2023-02-14T00:24:12.908Z,3.97
2023-02-14T00:28:16.064Z,4.25
2023-02-14T00:32:19.286Z,4.68
2023-02-14T00:36:23.759Z,4.60
2023-02-14T00:40:26.744Z,3.20
2023-02-14T00:44:29.752Z,5.45
2023-02-14T00:48:32.748Z,4.20
2023-02-14T00:52:37.358Z,3.80
2023-02-14T00:56:40.386Z,3.58
2023-02-14T01:00:45.415Z,5.40
2023-02-14T01:04:48.822Z,3.58
2023-02-14T01:08:53.218Z,5.05
2023-02-14T01:12:56.210Z,6.88
2023-02-14T01:16:59.265Z,5.03
2023-02-14T01:21:12.022Z,6.88
2023-02-14T01:25:16.669Z,5.70
2023-02-14T01:29:19.858Z,5.38
2023-02-14T01:33:23.014Z,7.18
2023-02-14T01:37:26.174Z,6.13
2023-02-14T01:41:32.872Z,10.60
2023-02-14T01:45:36.126Z,9.18
2023-02-14T01:49:42.258Z,8.13
2023-02-14T01:53:46.150Z,7.43
2023-02-14T01:57:53.648Z,6.30
2023-02-14T02:01:57.115Z,7.43
2023-02-14T02:06:06.847Z,6.13
2023-02-14T02:10:10.911Z,8.88
2023-02-14T02:14:18.677Z,5.82
2023-02-14T02:18:33.703Z,6.63
2023-02-14T02:23:02.886Z,8.18
2023-02-14T02:27:22.407Z,7.43
2023-02-14T02:31:55.767Z,6.40
2023-02-14T02:36:22.303Z,8.50
2023-02-14T02:40:37.276Z,6.88
2023-02-14T02:44:47.180Z,6.28
2023-02-14T02:48:58.080Z,8.77
2023-02-14T02:53:07.744Z,7.05
2023-02-14T02:57:20.090Z,6.63
2023-02-14T03:01:27.943Z,7.63
2023-02-14T03:05:33.345Z,6.95
2023-02-14T03:09:56.755Z,6.88
2023-02-14T03:14:13.761Z,8.10
2023-02-14T03:18:51.051Z,6.43
2023-02-14T03:23:03.174Z,6.30
2023-02-14T03:27:16.375Z,7.95
2023-02-14T03:31:25.224Z,7.72
2023-02-14T03:35:36.293Z,8.93
2023-02-14T03:39:45.144Z,9.20
2023-02-14T03:43:54.341Z,7.55
2023-02-14T03:48:01.673Z,9.38
2023-02-14T03:52:06.524Z,8.98
2023-02-14T03:56:14.467Z,7.35
2023-02-14T04:00:19.944Z,8.85
2023-02-14T04:04:28.370Z,8.40
2023-02-14T04:08:31.651Z,7.60
2023-02-14T04:12:37.927Z,11.52
2023-02-14T04:16:56.441Z,10.88
2023-02-14T04:20:59.805Z,9.63
2023-02-14T04:25:02.960Z,11.52
2023-02-14T04:29:06.049Z,11.43
2023-02-14T04:33:10.733Z,10.35
2023-02-14T04:37:15.094Z,11.30
2023-02-14T04:41:18.022Z,11.73
2023-02-14T04:45:21.339Z,12.25
2023-02-14T04:49:25.686Z,11.13
2023-02-14T04:53:28.897Z,11.15
2023-02-14T04:57:32.100Z,11.15
2023-02-14T05:01:35.500Z,10.02
2023-02-14T05:05:39.837Z,11.20
2023-02-14T05:09:42.972Z,11.20
2023-02-14T05:13:45.910Z,11.80
2023-02-14T05:17:49.098Z,11.00
2023-02-14T05:21:53.451Z,14.05
2023-02-14T05:25:56.493Z,13.32
2023-02-14T05:29:59.630Z,16.77
2023-02-14T05:34:02.686Z,13.20
2023-02-14T05:38:07.198Z,14.27
2023-02-14T05:42:10.357Z,14.48
2023-02-14T05:46:13.517Z,16.25
2023-02-14T05:50:17.012Z,13.35
2023-02-14T05:54:21.330Z,14.18
2023-02-14T05:58:24.388Z,13.57
2023-02-14T06:02:27.645Z,13.50
2023-02-14T06:06:30.689Z,10.20
2023-02-14T06:10:35.090Z,12.57
2023-02-14T06:14:39.199Z,10.48
2023-02-14T06:18:42.154Z,11.85
2023-02-14T06:22:45.503Z,12.80
2023-02-14T06:26:49.873Z,9.43
2023-02-14T06:30:53.045Z,10.80
2023-02-14T06:34:56.037Z,10.65
2023-02-14T06:38:59.300Z,13.23
2023-02-14T06:43:03.729Z,10.82
2023-02-14T06:47:08.547Z,11.88
2023-02-14T06:51:13.117Z,10.07
2023-02-14T06:55:16.170Z,9.52
2023-02-14T06:59:20.713Z,8.95
2023-02-14T07:03:23.743Z,9.63
2023-02-14T07:07:26.763Z,8.07
2023-02-14T07:11:29.859Z,7.60
2023-02-14T07:15:34.519Z,7.65
2023-02-14T07:19:37.789Z,7.82
2023-02-14T07:23:40.803Z,8.90
2023-02-14T07:27:44.161Z,10.60
2023-02-14T07:31:48.774Z,8.43
2023-02-14T07:35:51.903Z,9.82
2023-02-14T07:39:55.066Z,8.35
2023-02-14T07:43:58.148Z,9.65
2023-02-14T07:48:02.877Z,8.85
2023-02-14T07:52:06.307Z,10.68
2023-02-14T07:56:09.320Z,9.90
2023-02-14T08:00:14.518Z,10.07
2023-02-14T08:04:18.912Z,9.25
2023-02-14T08:08:22.020Z,9.30
2023-02-14T08:12:42.240Z,10.02
2023-02-14T08:16:45.359Z,9.07
2023-02-14T08:20:50.209Z,9.45
2023-02-14T08:24:53.628Z,8.30
2023-02-14T08:28:56.622Z,11.13
2023-02-14T08:32:59.870Z,11.77
2023-02-14T08:37:04.317Z,13.13
2023-02-14T08:41:09.019Z,11.40
2023-02-14T08:45:12.794Z,11.10
2023-02-14T08:49:16.021Z,13.15
2023-02-14T08:53:22.094Z,10.75
2023-02-14T08:57:25.487Z,12.05
2023-02-14T09:01:29.243Z,14.32
2023-02-14T09:05:32.573Z,11.95
2023-02-14T09:09:37.001Z,11.32
2023-02-14T09:13:40.035Z,16.17
2023-02-14T09:17:43.081Z,13.85
2023-02-14T09:21:46.248Z,15.85
2023-02-14T09:25:50.654Z,10.82
2023-02-14T09:29:58.330Z,11.65
2023-02-14T09:34:18.566Z,15.10
2023-02-14T09:38:21.677Z,13.35
2023-02-14T09:42:52.406Z,14.30
2023-02-14T09:47:00.677Z,14.15
2023-02-14T09:51:06.633Z,14.35
2023-02-14T09:55:14.617Z,13.85
2023-02-14T09:59:27.431Z,12.88
2023-02-14T10:03:52.867Z,14.38
2023-02-14T10:08:07.581Z,12.68
2023-02-14T10:12:18.717Z,11.48
2023-02-14T10:16:27.399Z,14.32
2023-02-14T10:20:35.994Z,12.73
2023-02-14T10:24:43.938Z,14.90
2023-02-14T10:28:49.373Z,13.68
2023-02-14T10:33:03.274Z,14.70
2023-02-14T10:37:28.883Z,17.33
2023-02-14T10:41:42.667Z,13.85
2023-02-14T10:45:52.585Z,13.63
2023-02-14T10:50:06.530Z,16.33
2023-02-14T10:54:21.832Z,18.65
2023-02-14T10:58:28.002Z,13.25
2023-02-14T11:02:34.176Z,16.60
2023-02-14T11:06:38.564Z,16.40
2023-02-14T11:10:41.822Z,14.85
2023-02-14T11:14:44.801Z,15.95
2023-02-14T11:18:47.842Z,13.23
2023-02-14T11:22:52.421Z,13.63
2023-02-14T11:26:59.007Z,13.63
2023-02-14T11:31:02.913Z,16.63
2023-02-14T11:35:09.437Z,13.68
2023-02-14T11:39:31.190Z,16.92
2023-02-14T11:43:36.621Z,13.57
2023-02-14T11:47:42.831Z,13.25
2023-02-14T11:51:46.389Z,14.95
2023-02-14T11:55:55.985Z,14.13
2023-02-14T12:00:00.868Z,13.55
2023-02-14T12:04:09.036Z,14.43
2023-02-14T12:08:13.862Z,14.30
2023-02-14T12:12:21.267Z,16.30
2023-02-14T12:16:29.916Z,13.15
2023-02-14T12:20:41.832Z,14.77
2023-02-14T12:24:55.349Z,15.02
2023-02-14T12:29:06.163Z,13.88
2023-02-14T12:33:17.597Z,12.23
2023-02-14T12:37:37.200Z,12.70
2023-02-14T12:41:47.918Z,14.23
2023-02-14T12:46:09.428Z,14.95
2023-02-14T12:50:32.318Z,11.60
2023-02-14T12:54:55.454Z,14.13
2023-02-14T12:59:08.052Z,12.82
2023-02-14T13:03:40.597Z,15.43
2023-02-14T13:07:58.565Z,14.27
2023-02-14T13:12:16.626Z,16.35
2023-02-14T13:16:28.011Z,14.30
2023-02-14T13:20:41.287Z,17.23
2023-02-14T13:24:47.396Z,13.57
2023-02-14T13:28:53.616Z,12.38
2023-02-14T13:33:00.165Z,14.93
2023-02-14T13:37:10.169Z,14.45
2023-02-14T13:41:15.426Z,15.77
2023-02-14T13:46:06.787Z,16.20
2023-02-14T13:50:22.380Z,15.93
2023-02-14T13:54:36.169Z,13.80
2023-02-14T13:58:48.894Z,14.52
2023-02-14T14:02:53.026Z,11.93
2023-02-14T14:07:19.646Z,14.38
2023-02-14T14:12:01.893Z,13.45
2023-02-14T14:16:28.749Z,14.85
2023-02-14T14:20:41.950Z,13.50
2023-02-14T14:25:00.302Z,14.13
2023-02-14T14:29:11.350Z,13.10
2023-02-14T14:33:17.484Z,16.48
2023-02-14T14:37:23.142Z,13.60
2023-02-14T14:41:31.346Z,15.77
2023-02-14T14:45:34.447Z,14.23
2023-02-14T14:49:38.993Z,16.25
2023-02-14T14:53:47.145Z,14.13
2023-02-14T14:57:52.687Z,15.65
2023-02-14T15:01:55.830Z,15.68
2023-02-14T15:06:17.547Z,15.00
2023-02-14T15:10:25.974Z,17.50
2023-02-14T15:14:31.565Z,13.25
2023-02-14T15:18:34.772Z,14.80
2023-02-14T15:22:44.304Z,16.80
2023-02-14T15:26:52.543Z,16.85
2023-02-14T15:31:05.257Z,14.48
2023-02-14T15:35:08.940Z,16.55
2023-02-14T15:39:17.649Z,15.98
2023-02-14T15:43:30.790Z,14.57
2023-02-14T15:47:33.827Z,15.50
2023-02-14T15:51:37.876Z,12.13
2023-02-14T15:55:44.458Z,16.02
2023-02-14T15:59:48.668Z,16.08
2023-02-14T16:03:57.335Z,16.17
2023-02-14T16:08:03.602Z,14.55
2023-02-14T16:12:28.504Z,15.43
2023-02-14T16:16:58.073Z,16.42
2023-02-14T16:21:12.602Z,13.13
2023-02-14T16:25:16.247Z,15.90
2023-02-14T16:29:21.936Z,15.98
2023-02-14T16:33:27.694Z,13.80
2023-02-14T16:37:33.649Z,15.43
2023-02-14T16:41:36.596Z,14.25
2023-02-14T16:45:41.182Z,15.07
2023-02-14T16:49:44.133Z,17.65
2023-02-14T16:53:47.576Z,15.90
2023-02-14T16:57:53.460Z,17.67
2023-02-14T17:01:58.337Z,13.15
2023-02-14T17:06:02.960Z,15.10
2023-02-14T17:10:09.158Z,12.80
2023-02-14T17:14:14.400Z,16.50
2023-02-14T17:18:22.077Z,16.55
2023-02-14T17:22:25.315Z,14.18
2023-02-14T17:26:28.360Z,15.55
2023-02-14T17:30:31.418Z,15.35
2023-02-14T17:34:36.034Z,18.30
2023-02-14T17:38:39.527Z,15.73
2023-02-14T17:42:43.288Z,20.05
2023-02-14T17:46:46.326Z,16.48
2023-02-14T17:50:50.794Z,16.38
2023-02-14T17:54:53.778Z,16.13
2023-02-14T17:58:56.822Z,14.88
2023-02-14T18:02:59.899Z,15.15
2023-02-14T18:07:04.813Z,14.70
2023-02-14T18:11:09.153Z,15.50
2023-02-14T18:15:12.413Z,14.00
2023-02-14T18:19:17.027Z,17.13
2023-02-14T18:23:22.701Z,16.88
2023-02-14T18:27:26.238Z,14.45
2023-02-14T18:31:29.352Z,17.98
2023-02-14T18:35:32.513Z,18.38
2023-02-14T18:39:36.945Z,19.25
2023-02-14T18:43:41.023Z,15.15
2023-02-14T18:47:44.055Z,16.85
2023-02-14T18:51:48.926Z,18.63
2023-02-14T18:55:53.540Z,13.10
2023-02-14T18:59:56.492Z,15.57
2023-02-14T19:04:01.466Z,15.10
2023-02-14T19:08:05.704Z,14.60
2023-02-14T19:12:10.909Z,14.25
2023-02-14T19:16:15.413Z,14.43
2023-02-14T19:20:19.019Z,16.58
2023-02-14T19:24:24.203Z,15.93
2023-02-14T19:28:28.577Z,17.60
2023-02-14T19:32:31.551Z,18.92
2023-02-14T19:36:36.383Z,17.20
2023-02-14T19:40:44.821Z,17.85
2023-02-14T19:44:49.789Z,15.45
2023-02-14T19:48:53.089Z,15.77
2023-02-14T19:52:57.424Z,15.23
2023-02-14T19:57:00.520Z,15.38
2023-02-14T20:01:05.882Z,16.33
2023-02-14T20:05:09.326Z,16.65
2023-02-14T20:09:13.047Z,16.50
2023-02-14T20:13:16.010Z,18.58
2023-02-14T20:17:20.705Z,17.25
2023-02-14T20:21:28.056Z,17.45
2023-02-14T20:25:31.497Z,18.92
2023-02-14T20:29:34.478Z,15.18
2023-02-14T20:33:39.041Z,16.23
2023-02-14T20:37:42.108Z,15.43
2023-02-14T20:41:49.759Z,16.65
2023-02-14T20:45:52.776Z,19.85
2023-02-14T20:49:57.277Z,15.48
2023-02-14T20:54:00.280Z,17.80
2023-02-14T20:58:03.988Z,17.13
2023-02-14T21:02:07.486Z,16.88
2023-02-14T21:06:12.629Z,17.65
2023-02-14T21:10:17.628Z,17.50
2023-02-14T21:14:21.027Z,18.10
2023-02-14T21:18:23.957Z,17.85
2023-02-14T21:22:28.357Z,18.90
2023-02-14T21:26:31.549Z,18.67
2023-02-14T21:30:34.586Z,17.33
2023-02-14T21:34:37.549Z,18.02
2023-02-14T21:38:42.782Z,19.17
2023-02-14T21:42:45.713Z,17.35
2023-02-14T21:46:48.776Z,17.65
2023-02-14T21:50:50.765Z,19.25
2023-02-14T21:54:55.133Z,18.10
2023-02-14T21:58:58.251Z,16.83
2023-02-14T22:03:01.422Z,16.00
2023-02-14T22:07:04.413Z,16.77
2023-02-14T22:11:10.319Z,15.13
2023-02-14T22:15:13.324Z,15.75
2023-02-14T22:19:17.350Z,18.40
2023-02-14T22:23:20.278Z,18.23
2023-02-14T22:27:24.797Z,17.90
2023-02-14T22:31:29.716Z,16.17
2023-02-14T22:35:32.804Z,20.23
2023-02-14T22:39:35.751Z,17.55
2023-02-14T22:43:40.852Z,21.73
2023-02-14T22:47:43.783Z,15.40
2023-02-14T22:51:47.040Z,17.20
2023-02-14T22:55:49.993Z,19.50
2023-02-14T22:59:54.600Z,20.00
2023-02-14T23:03:59.353Z,18.00
2023-02-14T23:08:02.652Z,17.50
2023-02-14T23:12:26.271Z,17.60
2023-02-14T23:16:49.022Z,19.02
2023-02-14T23:21:11.275Z,18.92
2023-02-14T23:25:14.322Z,14.82
2023-02-14T23:29:17.410Z,17.80
2023-02-14T23:33:21.956Z,18.45
2023-02-14T23:37:25.208Z,21.45
2023-02-14T23:41:45.639Z,16.77
2023-02-14T23:45:48.984Z,17.25
2023-02-14T23:49:53.446Z,18.17
2023-02-14T23:53:56.662Z,18.92
2023-02-14T23:58:01.352Z,20.13
